createdAt,value
2022-10-01T00:02:41.777Z,12.53
2022-10-01T00:05:44.769Z,12.43
2022-10-01T00:08:49.385Z,12.39
2022-10-01T00:11:52.611Z,12.35
2022-10-01T00:14:55.404Z,12.32
2022-10-01T00:17:57.366Z,12.30
2022-10-01T00:20:59.062Z,12.31
2022-10-01T00:24:05.054Z,12.32
2022-10-01T00:27:10.515Z,12.27
2022-10-01T00:30:13.201Z,12.27
2022-10-01T00:33:15.242Z,12.33
2022-10-01T00:36:16.797Z,12.33
2022-10-01T00:39:18.607Z,12.39
2022-10-01T00:42:24.018Z,12.34
2022-10-01T00:45:25.624Z,12.31
2022-10-01T00:48:30.662Z,12.30
2022-10-01T00:51:40.335Z,12.28
2022-10-01T00:54:49.586Z,12.34
2022-10-01T00:57:52.516Z,12.41
2022-10-01T01:00:56.576Z,12.44
2022-10-01T01:03:58.719Z,12.41
2022-10-01T01:07:04.455Z,12.55
2022-10-01T01:10:07.530Z,12.65
2022-10-01T01:13:09.160Z,12.57
2022-10-01T01:16:29.518Z,12.55
2022-10-01T01:19:51.718Z,12.61
2022-10-01T01:23:15.425Z,12.65
2022-10-01T01:26:42.301Z,12.51
2022-10-01T01:29:50.689Z,12.50
2022-10-01T01:33:03.316Z,12.46
2022-10-01T01:36:15.748Z,12.47
2022-10-01T01:39:20.461Z,12.58
2022-10-01T01:42:29.490Z,12.65
2022-10-01T01:45:35.864Z,12.89
2022-10-01T01:48:41.281Z,13.02
2022-10-01T01:51:51.281Z,13.16
2022-10-01T01:54:55.155Z,13.32
2022-10-01T01:57:57.888Z,13.30
2022-10-01T02:00:59.815Z,13.13
2022-10-01T02:04:07.648Z,13.23
2022-10-01T02:07:18.235Z,13.38
2022-10-01T02:10:52.059Z,13.38
2022-10-01T02:13:53.664Z,13.45
2022-10-01T02:17:01.658Z,13.47
2022-10-01T02:20:18.416Z,13.53
2022-10-01T02:23:30.315Z,13.66
2022-10-01T02:26:35.737Z,13.71
2022-10-01T02:29:39.031Z,13.68
2022-10-01T02:32:46.454Z,13.59
2022-10-01T02:35:52.206Z,13.70
2022-10-01T02:38:56.215Z,13.75
2022-10-01T02:42:00.768Z,13.40
2022-10-01T02:45:04.100Z,13.31
2022-10-01T02:48:11.538Z,13.28
2022-10-01T02:51:18.924Z,13.32
2022-10-01T02:54:31.364Z,13.35
2022-10-01T02:57:33.745Z,13.43
2022-10-01T03:00:36.326Z,13.46
2022-10-01T03:03:41.392Z,13.43
2022-10-01T03:06:43.029Z,13.38
2022-10-01T03:09:45.037Z,13.39
2022-10-01T03:12:47.162Z,13.42
2022-10-01T03:15:48.916Z,13.56
2022-10-01T03:18:51.163Z,13.51
2022-10-01T03:21:52.984Z,13.34
2022-10-01T03:24:54.944Z,13.58
2022-10-01T03:27:56.872Z,13.74
2022-10-01T03:31:12.463Z,13.69
2022-10-01T03:34:14.223Z,13.74
2022-10-01T03:37:17.197Z,13.78
2022-10-01T03:40:19.398Z,13.67
2022-10-01T03:43:21.064Z,13.67
2022-10-01T03:46:23.059Z,13.75
2022-10-01T03:49:24.911Z,13.82
2022-10-01T03:52:26.556Z,13.84
2022-10-01T03:55:34.524Z,13.83
2022-10-01T03:58:36.125Z,13.73
2022-10-01T04:01:39.540Z,13.78
2022-10-01T04:04:41.578Z,13.77
2022-10-01T04:07:43.830Z,13.74
2022-10-01T04:10:45.526Z,13.88
2022-10-01T04:13:47.570Z,13.82
2022-10-01T04:16:50.704Z,13.61
2022-10-01T04:19:52.411Z,13.69
2022-10-01T04:22:54.352Z,13.67
2022-10-01T04:26:00.176Z,13.72
2022-10-01T04:29:02.170Z,13.76
2022-10-01T04:32:04.174Z,13.81
2022-10-01T04:35:07.324Z,13.75
2022-10-01T04:38:17.027Z,13.76
2022-10-01T04:41:19.061Z,13.74
2022-10-01T04:44:21.032Z,13.82
2022-10-01T04:47:23.416Z,13.87
2022-10-01T04:50:26.951Z,13.94
2022-10-01T04:53:29.208Z,13.77
2022-10-01T04:56:30.890Z,13.91
2022-10-01T04:59:33.437Z,13.92
2022-10-01T05:02:35.524Z,14.02
2022-10-01T05:05:37.408Z,13.98
2022-10-01T05:08:39.288Z,13.94
2022-10-01T05:11:41.013Z,13.58
2022-10-01T05:14:48.885Z,13.47
2022-10-01T05:17:51.575Z,13.56
2022-10-01T05:20:53.285Z,13.63
2022-10-01T05:23:55.277Z,13.47
2022-10-01T05:26:57.949Z,13.36
2022-10-01T05:29:59.897Z,13.53
2022-10-01T05:33:05.439Z,13.73
2022-10-01T05:36:07.215Z,13.80
2022-10-01T05:39:09.789Z,13.86
2022-10-01T05:42:12.417Z,13.68
2022-10-01T05:45:14.085Z,13.88
2022-10-01T05:48:17.098Z,14.07
2022-10-01T05:51:19.004Z,13.55
2022-10-01T05:54:29.816Z,13.55
2022-10-01T05:57:31.529Z,13.87
2022-10-01T06:00:34.851Z,14.05
2022-10-01T06:03:36.958Z,14.12
2022-10-01T06:06:38.549Z,13.99
2022-10-01T06:09:40.348Z,13.74
2022-10-01T06:12:43.354Z,13.41
2022-10-01T06:15:46.545Z,13.34
2022-10-01T06:18:49.860Z,13.72
2022-10-01T06:21:51.943Z,13.81
2022-10-01T06:24:56.707Z,14.06
2022-10-01T06:27:59.841Z,13.90
2022-10-01T06:31:02.776Z,13.57
2022-10-01T06:34:04.418Z,13.71
2022-10-01T06:37:13.509Z,14.10
2022-10-01T06:40:15.240Z,13.89
2022-10-01T06:43:17.300Z,14.13
2022-10-01T06:46:19.065Z,14.32
2022-10-01T06:49:24.105Z,14.22
2022-10-01T06:52:44.152Z,14.27
2022-10-01T06:55:46.653Z,14.35
2022-10-01T06:58:48.368Z,14.17
2022-10-01T07:01:54.230Z,14.07
2022-10-01T07:05:01.691Z,14.05
2022-10-01T07:08:03.631Z,14.03
2022-10-01T07:11:05.661Z,14.34
2022-10-01T07:14:08.839Z,14.37
2022-10-01T07:17:16.627Z,14.24
2022-10-01T07:20:20.011Z,14.40
2022-10-01T07:23:24.377Z,14.30
2022-10-01T07:26:26.332Z,14.35
2022-10-01T07:29:28.009Z,14.19
2022-10-01T07:32:32.159Z,14.06
2022-10-01T07:35:38.003Z,14.05
2022-10-01T07:38:40.233Z,13.99
2022-10-01T07:41:42.937Z,13.86
2022-10-01T07:44:45.928Z,13.94
2022-10-01T07:47:58.575Z,13.88
2022-10-01T07:51:00.435Z,14.09
2022-10-01T07:54:03.544Z,14.06
2022-10-01T07:57:06.393Z,14.20
2022-10-01T08:00:08.681Z,13.99
2022-10-01T08:03:13.103Z,14.26
2022-10-01T08:06:15.362Z,14.15
2022-10-01T08:09:17.533Z,14.03
2022-10-01T08:12:19.705Z,14.22
2022-10-01T08:15:21.668Z,14.23
2022-10-01T08:18:24.029Z,14.37
2022-10-01T08:21:29.608Z,14.05
2022-10-01T08:24:31.674Z,13.91
2022-10-01T08:27:33.833Z,13.91
2022-10-01T08:30:37.452Z,13.89
2022-10-01T08:33:40.318Z,13.84
2022-10-01T08:36:42.323Z,13.90
2022-10-01T08:39:44.027Z,14.06
2022-10-01T08:43:00.203Z,14.29
2022-10-01T08:46:06.738Z,14.52
2022-10-01T08:49:25.872Z,14.53
2022-10-01T08:52:33.826Z,14.80
2022-10-01T08:55:37.686Z,14.93
2022-10-01T08:58:45.379Z,15.17
2022-10-01T09:01:50.816Z,15.09
2022-10-01T09:05:01.621Z,15.37
2022-10-01T09:08:07.035Z,15.54
2022-10-01T09:11:12.535Z,15.60
2022-10-01T09:14:16.936Z,15.60
2022-10-01T09:17:36.132Z,15.44
2022-10-01T09:20:46.626Z,15.87
2022-10-01T09:24:04.635Z,15.59
2022-10-01T09:27:14.278Z,16.02
2022-10-01T09:30:21.891Z,16.32
2022-10-01T09:33:31.425Z,16.11
2022-10-01T09:37:05.617Z,16.19
2022-10-01T09:40:22.241Z,16.58
2022-10-01T09:43:28.006Z,16.86
2022-10-01T09:46:29.801Z,16.68
2022-10-01T09:49:35.081Z,16.31
2022-10-01T09:52:39.872Z,16.55
2022-10-01T09:55:45.925Z,16.66
2022-10-01T09:59:00.104Z,16.99
2022-10-01T10:02:04.680Z,17.41
2022-10-01T10:05:13.547Z,17.70
2022-10-01T10:08:37.050Z,17.93
2022-10-01T10:11:42.846Z,18.37
2022-10-01T10:14:44.970Z,18.84
2022-10-01T10:17:51.590Z,18.66
2022-10-01T10:20:54.759Z,18.13
2022-10-01T10:24:00.326Z,18.15
2022-10-01T10:27:06.049Z,18.00
2022-10-01T10:30:17.265Z,18.04
2022-10-01T10:33:22.069Z,17.99
2022-10-01T10:36:29.167Z,18.09
2022-10-01T10:39:36.641Z,18.18
2022-10-01T10:42:39.009Z,18.30
2022-10-01T10:45:46.970Z,18.44
2022-10-01T10:49:00.183Z,18.34
2022-10-01T10:52:02.458Z,18.39
2022-10-01T10:55:25.326Z,18.09
2022-10-01T10:58:29.935Z,18.26
2022-10-01T11:01:32.302Z,18.42
2022-10-01T11:04:39.745Z,18.05
2022-10-01T11:07:45.074Z,17.84
2022-10-01T11:11:03.264Z,17.92
2022-10-01T11:14:13.713Z,17.80
2022-10-01T11:17:15.256Z,18.05
2022-10-01T11:20:31.194Z,17.67
2022-10-01T11:24:02.305Z,17.76
2022-10-01T11:27:16.276Z,17.64
2022-10-01T11:30:25.937Z,17.89
2022-10-01T11:33:33.574Z,17.97
2022-10-01T11:36:50.969Z,17.67
2022-10-01T11:39:59.594Z,17.68
2022-10-01T11:43:11.514Z,17.83
2022-10-01T11:46:42.718Z,18.07
2022-10-01T11:49:44.643Z,18.43
2022-10-01T11:53:09.152Z,18.20
2022-10-01T11:56:43.617Z,18.36
2022-10-01T12:00:04.333Z,18.11
2022-10-01T12:03:17.987Z,18.64
2022-10-01T12:06:26.088Z,18.71
2022-10-01T12:09:44.705Z,19.07
2022-10-01T12:13:04.314Z,19.21
2022-10-01T12:16:24.511Z,19.18
2022-10-01T12:19:36.858Z,19.09
2022-10-01T12:22:41.193Z,18.90
2022-10-01T12:26:05.992Z,19.02
2022-10-01T12:29:28.997Z,19.13
2022-10-01T12:32:54.279Z,18.89
2022-10-01T12:36:11.103Z,19.20
2022-10-01T12:39:27.092Z,19.40
2022-10-01T12:42:45.496Z,19.11
2022-10-01T12:46:02.894Z,19.18
2022-10-01T12:49:34.884Z,19.20
2022-10-01T12:53:05.194Z,19.10
2022-10-01T12:56:17.318Z,19.10
2022-10-01T12:59:34.125Z,19.61
2022-10-01T13:02:50.608Z,19.51
2022-10-01T13:06:07.756Z,19.57
2022-10-01T13:09:14.900Z,19.56
2022-10-01T13:12:16.455Z,19.79
2022-10-01T13:15:35.152Z,19.99
2022-10-01T13:18:40.958Z,20.24
2022-10-01T13:21:42.860Z,20.95
2022-10-01T13:25:06.660Z,24.18
2022-10-01T13:28:24.968Z,26.30
2022-10-01T13:31:37.348Z,28.74
2022-10-01T13:34:41.922Z,28.02
2022-10-01T13:37:43.846Z,27.37
2022-10-01T13:40:57.865Z,27.31
2022-10-01T13:44:21.340Z,28.77
2022-10-01T13:47:23.760Z,26.55
2022-10-01T13:50:25.735Z,24.02
2022-10-01T13:53:28.195Z,21.79
2022-10-01T13:56:35.371Z,21.96
2022-10-01T13:59:38.992Z,24.15
2022-10-01T14:02:57.653Z,25.08
2022-10-01T14:06:02.687Z,23.64
2022-10-01T14:09:10.165Z,22.04
2022-10-01T14:12:40.764Z,21.20
2022-10-01T14:15:59.796Z,21.15
2022-10-01T14:19:02.526Z,20.69
2022-10-01T14:22:07.224Z,20.17
2022-10-01T14:25:29.997Z,20.09
2022-10-01T14:28:41.028Z,19.94
2022-10-01T14:32:12.521Z,19.49
2022-10-01T14:35:30.496Z,19.51
2022-10-01T14:38:32.529Z,19.23
2022-10-01T14:41:35.488Z,19.24
2022-10-01T14:44:40.107Z,19.14
2022-10-01T14:47:41.972Z,19.41
2022-10-01T14:50:49.559Z,19.48
2022-10-01T14:53:52.805Z,19.29
2022-10-01T14:56:55.230Z,19.42
2022-10-01T15:00:00.638Z,19.46
2022-10-01T15:03:18.235Z,19.54
2022-10-01T15:06:24.039Z,19.57
2022-10-01T15:09:33.928Z,19.48
2022-10-01T15:12:40.907Z,19.26
2022-10-01T15:15:43.240Z,19.39
2022-10-01T15:18:58.732Z,19.46
2022-10-01T15:22:02.654Z,19.20
2022-10-01T15:25:04.924Z,18.92
2022-10-01T15:28:26.891Z,18.88
2022-10-01T15:31:29.171Z,18.73
2022-10-01T15:34:32.130Z,18.61
2022-10-01T15:37:36.399Z,18.47
2022-10-01T15:40:42.719Z,18.52
2022-10-01T15:43:45.487Z,18.16
2022-10-01T15:46:47.355Z,18.11
2022-10-01T15:50:10.779Z,18.07
2022-10-01T15:53:21.714Z,18.00
2022-10-01T15:56:25.117Z,17.91
2022-10-01T15:59:26.932Z,17.93
2022-10-01T16:02:31.447Z,17.91
2022-10-01T16:05:44.899Z,17.86
2022-10-01T16:09:00.191Z,17.74
2022-10-01T16:12:21.261Z,17.71
2022-10-01T16:15:31.036Z,17.80
2022-10-01T16:18:35.073Z,17.83
2022-10-01T16:22:15.856Z,17.70
2022-10-01T16:25:23.818Z,17.60
2022-10-01T16:28:33.294Z,17.55
2022-10-01T16:31:36.938Z,17.57
2022-10-01T16:34:39.042Z,17.49
2022-10-01T16:37:40.646Z,17.41
2022-10-01T16:40:44.637Z,17.11
2022-10-01T16:43:46.416Z,16.75
2022-10-01T16:46:48.580Z,16.55
2022-10-01T16:49:52.640Z,16.34
2022-10-01T16:52:56.506Z,16.31
2022-10-01T16:55:58.476Z,16.23
2022-10-01T16:59:00.474Z,16.12
2022-10-01T17:02:02.733Z,16.08
2022-10-01T17:05:05.227Z,16.04
2022-10-01T17:08:12.577Z,15.99
2022-10-01T17:11:14.116Z,15.92
2022-10-01T17:14:18.915Z,15.87
2022-10-01T17:17:20.857Z,15.82
2022-10-01T17:20:24.419Z,15.67
2022-10-01T17:23:26.508Z,15.61
2022-10-01T17:26:29.219Z,15.52
2022-10-01T17:29:32.351Z,15.36
2022-10-01T17:32:36.288Z,15.28
2022-10-01T17:35:44.107Z,15.17
2022-10-01T17:38:46.150Z,15.02
2022-10-01T17:41:48.218Z,14.96
2022-10-01T17:44:49.954Z,14.88
2022-10-01T17:47:51.929Z,14.83
2022-10-01T17:51:03.623Z,14.91
2022-10-01T17:54:05.842Z,14.91
2022-10-01T17:57:10.849Z,14.84
2022-10-01T18:00:15.991Z,14.84
2022-10-01T18:03:18.309Z,14.81
2022-10-01T18:06:25.488Z,14.74
2022-10-01T18:09:27.409Z,14.74
2022-10-01T18:12:29.155Z,14.70
2022-10-01T18:15:31.257Z,14.62
2022-10-01T18:19:51.739Z,14.64
2022-10-01T18:21:59.243Z,14.67
2022-10-01T18:25:00.959Z,14.60
2022-10-01T18:28:02.885Z,14.58
2022-10-01T18:31:13.745Z,14.46
2022-10-01T18:34:24.640Z,14.48
2022-10-01T18:37:39.987Z,14.44
2022-10-01T18:40:43.704Z,14.41
2022-10-01T18:43:46.631Z,14.32
2022-10-01T18:47:02.381Z,14.21
2022-10-01T18:50:21.175Z,14.38
2022-10-01T18:53:34.782Z,14.27
2022-10-01T18:56:39.186Z,14.18
2022-10-01T19:00:08.637Z,14.27
2022-10-01T19:03:37.126Z,14.28
2022-10-01T19:06:44.669Z,14.24
2022-10-01T19:09:53.063Z,14.26
2022-10-01T19:13:06.510Z,14.28
2022-10-01T19:16:26.326Z,13.93
2022-10-01T19:19:34.953Z,14.13
2022-10-01T19:23:17.241Z,14.19
2022-10-01T19:26:44.630Z,14.21
2022-10-01T19:29:55.008Z,14.06
2022-10-01T19:33:03.197Z,14.06
2022-10-01T19:36:06.842Z,13.88
2022-10-01T19:39:16.379Z,13.85
2022-10-01T19:42:27.400Z,13.92
2022-10-01T19:45:50.856Z,14.00
2022-10-01T19:49:08.577Z,14.00
2022-10-01T19:52:13.661Z,13.96
2022-10-01T19:55:20.698Z,14.04
2022-10-01T19:58:24.666Z,13.84
2022-10-01T20:02:02.642Z,13.91
2022-10-01T20:05:06.630Z,13.69
2022-10-01T20:08:33.167Z,13.77
2022-10-01T20:12:13.201Z,13.64
2022-10-01T20:15:45.468Z,13.73
2022-10-01T20:18:50.173Z,13.71
2022-10-01T20:22:26.376Z,13.74
2022-10-01T20:25:55.974Z,13.60
2022-10-01T20:29:18.412Z,13.56
2022-10-01T20:32:29.719Z,13.65
2022-10-01T20:36:08.245Z,13.53
2022-10-01T20:39:19.659Z,13.52
2022-10-01T20:42:33.830Z,13.41
2022-10-01T20:45:40.774Z,13.52
2022-10-01T20:48:47.899Z,13.30
2022-10-01T20:52:00.436Z,13.36
2022-10-01T20:55:14.264Z,13.26
2022-10-01T20:58:21.514Z,13.22
2022-10-01T21:01:26.143Z,13.16
2022-10-01T21:04:35.351Z,13.02
2022-10-01T21:07:52.151Z,13.13
2022-10-01T21:11:02.357Z,13.26
2022-10-01T21:14:26.260Z,13.42
2022-10-01T21:18:06.082Z,13.23
2022-10-01T21:21:32.132Z,13.04
2022-10-01T21:25:14.120Z,13.05
2022-10-01T21:28:42.360Z,13.02
2022-10-01T21:32:14.694Z,12.94
2022-10-01T21:35:32.333Z,13.01
2022-10-01T21:38:58.701Z,13.05
2022-10-01T21:42:19.872Z,12.98
2022-10-01T21:45:53.977Z,13.06
2022-10-01T21:48:58.468Z,13.12
2022-10-01T21:52:11.251Z,12.97
2022-10-01T21:55:44.006Z,13.08
2022-10-01T21:59:17.178Z,13.11
2022-10-01T22:02:40.144Z,13.07
2022-10-01T22:05:57.208Z,13.05
2022-10-01T22:09:16.327Z,13.08
2022-10-01T22:12:20.584Z,12.98
2022-10-01T22:15:28.590Z,13.04
2022-10-01T22:19:12.308Z,13.15
2022-10-01T22:22:48.672Z,12.93
2022-10-01T22:25:58.391Z,12.87
2022-10-01T22:29:03.020Z,12.66
2022-10-01T22:32:13.153Z,12.62
2022-10-01T22:35:20.659Z,12.57
2022-10-01T22:38:48.167Z,12.62
2022-10-01T22:41:56.588Z,12.58
2022-10-01T22:45:15.557Z,12.56
2022-10-01T22:48:36.655Z,12.53
2022-10-01T22:52:20.331Z,12.41
2022-10-01T22:55:33.021Z,12.47
2022-10-01T22:59:10.466Z,12.43
2022-10-01T23:02:14.983Z,12.40
2022-10-01T23:05:41.521Z,12.26
2022-10-01T23:08:54.852Z,12.29
2022-10-01T23:12:03.905Z,12.16
2022-10-01T23:15:40.911Z,12.16
2022-10-01T23:18:54.440Z,12.17
2022-10-01T23:22:19.711Z,12.00
2022-10-01T23:25:33.331Z,12.05
2022-10-01T23:28:53.809Z,12.08
2022-10-01T23:32:13.553Z,11.93
2022-10-01T23:35:19.750Z,11.85
2022-10-01T23:38:33.453Z,11.83
2022-10-01T23:41:41.634Z,11.74
2022-10-01T23:44:50.123Z,11.83
2022-10-01T23:48:00.095Z,11.81
2022-10-01T23:51:01.751Z,11.84
2022-10-01T23:54:27.385Z,11.80
2022-10-01T23:57:34.064Z,11.73
